Time;durP1;ratioP1;P1;durP2;ratioP2;P2;SDS_P1;SDS_P2;PMS_P1;PMS_P2;Temp;Humidity;BMP_temperature;BMP_pressure;BME280_temperature;BME280_humidity;BME280_pressure;Samples;Min_cycle;Max_cycle;Signal;HPM_P1;HPM_P2
2023/04/05 00:01:18;;;;;;;8.82;4.05;;;;;;;2.98;96.26;102360.91;5058463;28;20066;-59
2023/04/05 00:03:47;;;;;;;8.27;4.00;;;;;;;3.01;96.00;102353.09;5061254;28;20043;-59
2023/04/05 00:06:15;;;;;;;10.00;4.25;;;;;;;2.94;95.26;102355.75;5063270;28;20082;-60
2023/04/05 00:08:49;;;;;;;9.00;3.80;;;;;;;2.90;94.69;102351.47;5062817;28;20045;-59
2023/04/05 00:11:19;;;;;;;11.63;4.22;;;;;;;2.81;94.65;102353.25;5066225;28;20807;-59
2023/04/05 00:13:48;;;;;;;11.45;4.50;;;;;;;2.73;94.89;102354.19;5064341;28;20048;-60
2023/04/05 00:16:16;;;;;;;11.80;4.93;;;;;;;2.70;95.42;102352.50;5061922;28;20559;-60
2023/04/05 00:18:48;;;;;;;9.05;4.15;;;;;;;2.70;95.36;102342.97;5063389;28;20048;-59
2023/04/05 00:21:17;;;;;;;9.73;4.43;;;;;;;2.69;94.50;102345.56;5057267;28;20119;-60
2023/04/05 00:23:45;;;;;;;10.57;5.10;;;;;;;2.64;95.39;102348.19;5065264;28;20453;-60
2023/04/05 00:26:13;;;;;;;9.05;3.97;;;;;;;2.64;95.67;102345.59;5061413;28;20048;-60
2023/04/05 00:28:42;;;;;;;8.05;4.38;;;;;;;2.62;95.05;102352.56;5066133;28;20063;-59
2023/04/05 00:31:11;;;;;;;10.57;4.55;;;;;;;2.59;96.01;102344.78;5064694;28;20127;-60
2023/04/05 00:33:39;;;;;;;8.68;4.13;;;;;;;2.58;95.15;102344.78;5073851;28;20056;-60
2023/04/05 00:36:12;;;;;;;7.97;4.40;;;;;;;2.53;96.55;102345.66;5073916;28;20147;-60
2023/04/05 00:38:41;;;;;;;10.13;4.38;;;;;;;2.50;97.03;102345.69;5070890;28;20048;-59
2023/04/05 00:41:10;;;;;;;9.57;4.00;;;;;;;2.47;97.39;102340.53;5069196;28;20078;-60
2023/04/05 00:43:39;;;;;;;10.50;4.95;;;;;;;2.45;98.15;102331.88;5072404;28;20033;-60
2023/04/05 00:46:09;;;;;;;9.32;4.72;;;;;;;2.43;99.06;102344.03;5064916;28;20049;-60
2023/04/05 00:48:38;;;;;;;12.27;5.28;;;;;;;2.44;99.48;102334.50;5053340;28;20055;-60
2023/04/05 00:51:10;;;;;;;8.82;4.10;;;;;;;2.42;100.00;102337.09;5068610;28;20044;-60
2023/04/05 00:53:39;;;;;;;9.90;4.60;;;;;;;2.45;100.00;102326.69;5072379;28;20048;-60
2023/04/05 00:56:12;;;;;;;13.10;3.92;;;;;;;2.41;100.00;102334.53;5073191;28;20048;-60
2023/04/05 00:58:43;;;;;;;8.10;4.03;;;;;;;2.34;100.00;102336.31;5073047;28;20049;-60
2023/04/05 01:01:18;;;;;;;10.48;4.68;;;;;;;2.37;100.00;102325.88;5072409;28;20052;-59
2023/04/05 01:03:52;;;;;;;9.43;4.13;;;;;;;2.30;100.00;102317.28;5061363;28;20099;-59
2023/04/05 01:06:42;;;;;;;8.93;4.28;;;;;;;2.27;100.00;102319.03;5058889;28;20106;-59
2023/04/05 01:09:22;;;;;;;11.85;4.32;;;;;;;2.24;100.00;102314.72;5066863;28;20044;-60
2023/04/05 01:11:54;;;;;;;8.35;4.30;;;;;;;2.22;100.00;102318.22;5058624;28;20040;-60
2023/04/05 01:14:22;;;;;;;10.75;4.50;;;;;;;2.20;100.00;102323.41;5063141;28;20049;-59
2023/04/05 01:16:57;;;;;;;11.02;4.43;;;;;;;2.24;100.00;102312.13;5058466;28;20059;-59
2023/04/05 01:19:29;;;;;;;9.65;4.50;;;;;;;2.23;100.00;102302.63;5059726;28;20049;-59
2023/04/05 01:22:51;;;;;;;10.45;4.38;;;;;;;2.19;100.00;102304.38;5054605;28;20094;-59
2023/04/05 01:25:49;;;;;;;10.30;4.60;;;;;;;2.12;100.00;102305.28;5055594;28;20113;-59
2023/04/05 01:28:40;;;;;;;8.75;4.32;;;;;;;2.10;100.00;102303.56;5059459;28;20403;-59
2023/04/05 01:31:20;;;;;;;13.45;4.55;;;;;;;2.05;100.00;102308.81;5056950;28;20111;-60
2023/04/05 01:33:55;;;;;;;12.18;4.03;;;;;;;2.11;100.00;102303.56;5059352;28;20049;-60
2023/04/05 01:36:30;;;;;;;7.85;4.15;;;;;;;2.05;100.00;102310.53;5060335;28;20044;-59
2023/04/05 01:38:59;;;;;;;9.30;3.92;;;;;;;2.14;100.00;102300.97;5061286;28;20442;-59
2023/04/05 01:41:28;;;;;;;8.93;3.95;;;;;;;2.13;100.00;102304.41;5064431;28;20043;-59
2023/04/05 01:43:56;;;;;;;8.50;4.63;;;;;;;2.12;100.00;102301.84;5061146;28;20068;-59
2023/04/05 01:46:28;;;;;;;10.15;4.55;;;;;;;2.06;100.00;102305.34;5061193;28;20110;-59
2023/04/05 01:48:56;;;;;;;13.05;4.60;;;;;;;1.97;100.00;102302.78;5060701;28;20052;-60
2023/04/05 01:51:25;;;;;;;8.40;3.70;;;;;;;1.91;100.00;102298.50;5054638;28;20048;-59
2023/04/05 01:53:53;;;;;;;12.10;4.65;;;;;;;1.98;100.00;102297.59;5061261;28;20496;-59
2023/04/05 01:56:21;;;;;;;10.35;4.75;;;;;;;1.95;100.00;102297.63;5063373;28;20107;-59
2023/04/05 01:58:49;;;;;;;9.60;4.47;;;;;;;1.97;100.00;102292.41;5063984;28;20045;-60
2023/04/05 02:01:18;;;;;;;11.35;4.97;;;;;;;1.91;100.00;102297.63;5057355;28;20048;-59
2023/04/05 02:03:47;;;;;;;10.38;4.53;;;;;;;1.95;100.00;102299.34;5060213;28;20503;-59
2023/04/05 02:06:15;;;;;;;11.60;4.70;;;;;;;1.88;100.00;102293.31;5060013;28;20052;-59
2023/04/05 02:08:43;;;;;;;10.80;5.22;;;;;;;1.81;100.00;102295.09;5062076;28;20407;-60
2023/04/05 02:11:11;;;;;;;11.15;5.03;;;;;;;1.75;100.00;102295.13;5058558;28;20105;-60
2023/04/05 02:13:40;;;;;;;12.27;4.75;;;;;;;1.84;100.00;102291.59;5060993;28;21711;-59
2023/04/05 02:16:08;;;;;;;10.93;4.47;;;;;;;1.75;100.00;102289.94;5055265;28;20128;-60
2023/04/05 02:18:37;;;;;;;9.73;4.72;;;;;;;1.80;100.00;102284.72;5060375;28;20051;-59
2023/04/05 02:21:09;;;;;;;10.65;4.55;;;;;;;1.71;100.00;102290.81;5062236;28;20526;-59
2023/04/05 02:23:37;;;;;;;10.32;4.97;;;;;;;1.66;100.00;102282.19;5059328;28;20097;-59
2023/04/05 02:26:05;;;;;;;12.18;4.97;;;;;;;1.63;100.00;102288.25;5057821;28;20854;-59
2023/04/05 02:28:34;;;;;;;11.93;4.70;;;;;;;1.63;100.00;102282.22;5057578;28;20527;-59
2023/04/05 02:31:09;;;;;;;10.20;5.10;;;;;;;1.62;100.00;102285.66;5057523;28;20049;-59
2023/04/05 02:33:38;;;;;;;10.23;5.22;;;;;;;1.60;100.00;102282.25;5063202;28;20036;-59
2023/04/05 02:36:09;;;;;;;10.77;4.95;;;;;;;1.61;100.00;102278.75;5062506;28;21594;-59
2023/04/05 02:38:37;;;;;;;10.65;4.95;;;;;;;1.63;100.00;102282.22;5058212;28;20068;-58
2023/04/05 02:41:08;;;;;;;10.60;4.57;;;;;;;1.65;100.00;102277.88;5058735;28;20045;-59
2023/04/05 02:43:36;;;;;;;10.60;4.88;;;;;;;1.56;100.00;102272.75;5057194;28;20040;-59
2023/04/05 02:46:05;;;;;;;9.63;4.45;;;;;;;1.61;100.00;102273.56;5061619;28;20068;-60
2023/04/05 02:48:33;;;;;;;10.45;5.20;;;;;;;1.57;100.00;102271.84;5058821;28;20050;-60
2023/04/05 02:51:01;;;;;;;10.02;5.18;;;;;;;1.47;100.00;102269.34;5055352;28;20051;-60
2023/04/05 02:53:31;;;;;;;12.73;5.07;;;;;;;1.48;100.00;102272.78;5057652;28;20448;-60
2023/04/05 02:55:59;;;;;;;11.88;4.93;;;;;;;1.42;100.00;102267.59;5064597;28;20148;-60
2023/04/05 02:58:27;;;;;;;8.40;4.32;;;;;;;1.47;100.00;102268.44;5060764;28;20110;-60
2023/04/05 03:00:55;;;;;;;11.90;5.20;;;;;;;1.42;100.00;102271.06;5064528;28;20068;-60
2023/04/05 03:03:25;;;;;;;9.73;4.57;;;;;;;1.37;100.00;102270.22;5062488;28;20049;-60
2023/04/05 03:05:59;;;;;;;11.80;5.25;;;;;;;1.49;100.00;102271.91;5058208;28;20032;-59
2023/04/05 03:08:27;;;;;;;11.30;4.80;;;;;;;1.43;100.00;102261.56;5056710;28;20094;-60
2023/04/05 03:10:57;;;;;;;12.32;5.05;;;;;;;1.32;100.00;102264.19;5064288;28;20734;-59
2023/04/05 03:13:25;;;;;;;10.38;4.65;;;;;;;1.30;100.00;102269.38;5062411;28;20123;-59
2023/04/05 03:15:54;;;;;;;13.80;5.57;;;;;;;1.40;100.00;102264.16;5056566;28;20056;-60
2023/04/05 03:18:24;;;;;;;10.23;5.05;;;;;;;1.32;100.00;102261.59;5059490;28;20041;-60
2023/04/05 03:20:55;;;;;;;9.82;5.22;;;;;;;1.34;100.00;102250.34;5061260;28;20045;-60
2023/04/05 03:23:26;;;;;;;11.13;5.43;;;;;;;1.34;100.00;102247.75;5065185;28;20052;-58
2023/04/05 03:25:56;;;;;;;13.48;5.50;;;;;;;1.25;100.00;102250.38;5061418;28;20060;-59
2023/04/05 03:28:25;;;;;;;11.10;5.25;;;;;;;1.27;100.00;102252.97;5069885;28;20095;-59
2023/04/05 03:30:54;;;;;;;10.80;5.50;;;;;;;1.29;100.00;102251.25;5068735;28;20041;-59
2023/04/05 03:33:22;;;;;;;11.50;5.10;;;;;;;1.25;100.00;102252.13;5065347;28;20044;-59
2023/04/05 03:35:50;;;;;;;10.15;5.38;;;;;;;1.28;100.00;102246.91;5063550;28;20435;-59
2023/04/05 03:38:21;;;;;;;10.98;5.13;;;;;;;1.18;100.00;102246.94;5059380;28;20048;-59
2023/04/05 03:40:49;;;;;;;12.18;5.68;;;;;;;1.17;100.00;102244.38;5058838;28;20164;-59
2023/04/05 03:43:17;;;;;;;13.50;6.95;;;;;;;1.12;100.00;102240.94;5062952;28;20041;-58
2023/04/05 03:45:46;;;;;;;9.77;5.15;;;;;;;1.10;100.00;102235.75;5062843;28;20090;-60
2023/04/05 03:48:18;;;;;;;11.90;5.13;;;;;;;1.13;100.00;102235.75;5066428;28;20428;-58
2023/04/05 03:50:47;;;;;;;13.10;5.55;;;;;;;1.12;100.00;102238.38;5061424;28;20646;-58
2023/04/05 03:53:18;;;;;;;9.48;5.03;;;;;;;1.05;100.00;102247.88;5064507;28;20076;-58
2023/04/05 03:55:48;;;;;;;10.00;5.35;;;;;;;1.03;100.00;102243.56;5065240;28;20446;-59
2023/04/05 03:58:16;;;;;;;11.15;5.63;;;;;;;1.00;100.00;102239.25;5066671;28;20067;-58
2023/04/05 04:00:46;;;;;;;12.88;5.03;;;;;;;0.95;100.00;102241.84;5061641;28;20048;-59
2023/04/05 04:03:14;;;;;;;12.90;5.20;;;;;;;0.91;100.00;102236.69;5069185;28;20060;-58
2023/04/05 04:05:42;;;;;;;12.75;5.60;;;;;;;1.01;100.00;102236.66;5062244;28;20044;-58
2023/04/05 04:08:12;;;;;;;12.60;5.53;;;;;;;0.89;100.00;102235.84;5065067;28;20530;-59
2023/04/05 04:10:43;;;;;;;13.13;5.40;;;;;;;0.91;100.00;102237.53;5057671;28;20068;-59
2023/04/05 04:13:11;;;;;;;10.95;5.88;;;;;;;0.86;100.00;102241.00;5061049;28;20560;-59
2023/04/05 04:15:39;;;;;;;12.30;5.80;;;;;;;0.84;100.00;102233.25;5062518;28;20048;-59
2023/04/05 04:18:09;;;;;;;10.63;5.45;;;;;;;0.81;100.00;102238.44;5059939;28;20123;-59
2023/04/05 04:20:37;;;;;;;10.90;5.65;;;;;;;0.80;100.00;102232.38;5058599;28;20072;-59
2023/04/05 04:23:08;;;;;;;11.60;5.47;;;;;;;0.83;100.00;102229.81;5065148;28;20044;-59
2023/04/05 04:25:37;;;;;;;11.80;5.75;;;;;;;0.80;100.00;102234.13;5057912;28;20525;-59
2023/04/05 04:28:08;;;;;;;14.30;6.05;;;;;;;0.75;100.00;102231.53;5061276;28;20239;-58
2023/04/05 04:30:36;;;;;;;12.70;6.30;;;;;;;0.68;100.00;102229.81;5063939;28;20479;-59
2023/04/05 04:33:06;;;;;;;12.02;6.22;;;;;;;0.71;100.00;102224.66;5064437;28;20399;-59
2023/04/05 04:35:38;;;;;;;10.93;6.28;;;;;;;0.66;100.00;102227.22;5063251;28;20049;-59
2023/04/05 04:38:07;;;;;;;10.85;6.13;;;;;;;0.64;100.00;102230.69;5063593;28;20480;-59
2023/04/05 04:40:38;;;;;;;14.75;5.82;;;;;;;0.58;100.00;102233.28;5068680;28;20055;-59
2023/04/05 04:43:08;;;;;;;12.52;5.75;;;;;;;0.56;100.00;102232.41;5069990;28;21033;-59
2023/04/05 04:45:37;;;;;;;12.50;5.85;;;;;;;0.64;100.00;102228.09;5063199;28;20044;-59
2023/04/05 04:48:07;;;;;;;12.13;5.88;;;;;;;0.60;100.00;102231.56;5061248;28;20472;-59
2023/04/05 04:50:36;;;;;;;11.95;5.63;;;;;;;0.54;100.00;102229.84;5063231;28;20491;-59
2023/04/05 04:53:06;;;;;;;11.80;6.22;;;;;;;0.53;100.00;102224.66;5059245;28;20052;-59
2023/04/05 04:55:35;;;;;;;11.88;6.05;;;;;;;0.49;100.00;102231.56;5056659;28;20056;-59
2023/04/05 04:58:08;;;;;;;14.00;6.38;;;;;;;0.45;100.00;102228.13;5059235;28;20108;-58
2023/04/05 05:00:38;;;;;;;13.57;6.05;;;;;;;0.50;100.00;102233.28;5054743;28;20052;-58
2023/04/05 05:03:10;;;;;;;11.98;6.47;;;;;;;0.49;100.00;102229.84;5069130;28;20048;-58
2023/04/05 05:05:42;;;;;;;14.30;6.50;;;;;;;0.45;100.00;102224.66;5054058;28;20051;-58
2023/04/05 05:08:12;;;;;;;16.65;7.03;;;;;;;0.42;100.00;102232.44;5058473;28;20059;-59
2023/04/05 05:10:40;;;;;;;10.68;5.90;;;;;;;0.37;100.00;102219.50;5063887;28;20045;-59
2023/04/05 05:13:12;;;;;;;14.70;6.88;;;;;;;0.29;100.00;102223.81;5061765;28;20041;-59
2023/04/05 05:15:40;;;;;;;12.45;6.45;;;;;;;0.30;100.00;102226.41;5063039;28;20510;-60
2023/04/05 05:18:09;;;;;;;12.68;6.60;;;;;;;0.30;100.00;102230.72;5055449;28;20480;-59
2023/04/05 05:20:37;;;;;;;13.48;6.95;;;;;;;0.24;100.00;102236.75;5060656;28;20064;-60
2023/04/05 05:23:05;;;;;;;12.43;6.38;;;;;;;0.28;100.00;102227.28;5064122;28;20124;-60
2023/04/05 05:25:35;;;;;;;12.52;6.88;;;;;;;0.32;100.00;102223.81;5062803;28;20049;-60
2023/04/05 05:28:05;;;;;;;15.93;6.93;;;;;;;0.29;100.00;102235.03;5063335;28;20087;-59
2023/04/05 05:30:33;;;;;;;13.18;6.70;;;;;;;0.30;100.00;102230.72;5056217;28;20052;-60
2023/04/05 05:33:02;;;;;;;12.77;6.63;;;;;;;0.26;100.00;102231.56;5059564;28;20936;-59
2023/04/05 05:35:33;;;;;;;14.38;6.95;;;;;;;0.28;100.00;102222.09;5060625;28;20052;-59
2023/04/05 05:38:01;;;;;;;13.75;6.72;;;;;;;0.31;100.00;102228.16;5061338;28;20115;-59
2023/04/05 05:40:29;;;;;;;12.73;6.55;;;;;;;0.32;100.00;102235.03;5058755;28;20040;-59
2023/04/05 05:42:59;;;;;;;12.75;6.47;;;;;;;0.28;100.00;102233.31;5059783;28;20052;-59
2023/04/05 05:45:27;;;;;;;12.43;6.70;;;;;;;0.24;100.00;102230.72;5054508;28;20048;-60
2023/04/05 05:47:56;;;;;;;14.65;6.78;;;;;;;0.26;100.00;102227.28;5056786;28;20114;-59
2023/04/05 05:50:24;;;;;;;15.38;7.50;;;;;;;0.31;100.00;102224.69;5064861;28;20077;-59
2023/04/05 05:52:53;;;;;;;12.98;7.10;;;;;;;0.26;100.00;102236.75;5065328;28;20059;-59
2023/04/05 05:55:21;;;;;;;14.40;7.70;;;;;;;0.23;100.00;102229.88;5063710;28;20776;-60
2023/04/05 05:57:51;;;;;;;12.85;7.47;;;;;;;0.21;100.00;102220.38;5063563;28;20142;-60
2023/04/05 06:00:23;;;;;;;;;;;;;;;0.29;100.00;102227.28;5055869;28;20048;-59
2023/04/05 06:02:52;;;;;;;13.38;6.53;;;;;;;0.28;100.00;102220.34;5058333;28;19927;-59
2023/04/05 06:05:20;;;;;;;14.63;7.53;;;;;;;0.30;100.00;102223.81;5059255;28;20124;-59
2023/04/05 06:07:48;;;;;;;17.25;8.10;;;;;;;0.31;100.00;102222.09;5064046;28;20040;-59
2023/04/05 06:10:16;;;;;;;15.68;7.20;;;;;;;0.37;100.00;102226.41;5065920;28;20048;-59
2023/04/05 06:12:44;;;;;;;15.20;7.53;;;;;;;0.36;100.00;102225.53;5062738;28;20596;-60
2023/04/05 06:15:15;;;;;;;15.60;8.15;;;;;;;0.41;100.00;102228.13;5063737;28;20040;-59
2023/04/05 06:17:44;;;;;;;13.38;7.13;;;;;;;0.42;100.00;102230.69;5063272;28;20084;-59
2023/04/05 06:20:12;;;;;;;15.40;7.57;;;;;;;0.57;100.00;102227.22;5061940;28;20036;-59
2023/04/05 06:22:41;;;;;;;15.15;7.75;;;;;;;0.58;100.00;102223.78;5064353;28;20468;-60
2023/04/05 06:25:11;;;;;;;14.60;7.22;;;;;;;0.62;100.00;102228.09;5061828;28;20060;-60
2023/04/05 06:27:40;;;;;;;19.85;7.30;;;;;;;0.72;100.00;102230.69;5063169;28;20412;-59
2023/04/05 06:30:09;;;;;;;13.57;7.03;;;;;;;0.83;100.00;102227.22;5060724;28;20055;-59
2023/04/05 06:32:37;;;;;;;14.93;7.18;;;;;;;0.90;100.00;102227.19;5057620;28;20044;-59
2023/04/05 06:35:08;;;;;;;12.32;6.95;;;;;;;0.92;100.00;102230.63;5062859;28;20516;-59
2023/04/05 06:37:36;;;;;;;14.88;7.20;;;;;;;0.95;100.00;102230.63;5056970;28;20052;-59
2023/04/05 06:40:05;;;;;;;13.05;7.13;;;;;;;1.08;100.00;102239.22;5060286;28;20411;-59
2023/04/05 06:42:33;;;;;;;12.60;7.15;;;;;;;1.17;100.00;102231.41;5056556;28;20375;-59
2023/04/05 06:45:03;;;;;;;12.40;7.13;;;;;;;1.37;100.00;102235.66;5060058;28;21098;-58
2023/04/05 06:47:33;;;;;;;13.32;6.95;;;;;;;1.44;100.00;102243.38;5056794;28;20049;-58
2023/04/05 06:50:02;;;;;;;14.40;7.13;;;;;;;1.42;100.00;102247.75;5061159;28;20051;-59
2023/04/05 06:52:34;;;;;;;13.63;7.43;;;;;;;1.54;100.00;102236.47;5060938;28;20074;-59
2023/04/05 06:55:03;;;;;;;12.60;7.50;;;;;;;1.58;100.00;102242.47;5069978;28;20098;-59
2023/04/05 06:57:31;;;;;;;13.82;7.43;;;;;;;1.67;100.00;102229.44;5067731;28;20067;-59
2023/04/05 07:00:00;;;;;;;16.13;7.72;;;;;;;1.75;100.00;102234.59;5061352;28;20049;-59
2023/04/05 07:02:28;;;;;;;14.73;7.10;;;;;;;1.84;100.00;102243.19;5065095;28;20049;-59
2023/04/05 07:05:02;;;;;;;13.23;7.32;;;;;;;1.95;100.00;102239.66;5064367;28;20040;-59
2023/04/05 07:07:30;;;;;;;13.25;7.22;;;;;;;2.06;100.00;102248.25;5061882;28;20041;-59
2023/04/05 07:10:00;;;;;;;14.63;7.10;;;;;;;2.17;100.00;102232.59;5062476;28;20499;-59
2023/04/05 07:12:28;;;;;;;13.38;7.28;;;;;;;2.29;100.00;102234.19;5061075;28;20127;-59
2023/04/05 07:14:56;;;;;;;11.88;7.28;;;;;;;2.42;100.00;102237.56;5065805;28;20492;-60
2023/04/05 07:17:24;;;;;;;12.85;6.90;;;;;;;2.55;100.00;102239.19;5073157;28;20048;-59
2023/04/05 07:19:52;;;;;;;13.48;6.90;;;;;;;2.69;100.00;102236.47;5061779;28;20048;-59
2023/04/05 07:22:20;;;;;;;11.88;7.07;;;;;;;2.82;100.00;102237.19;5069611;28;20056;-59
2023/04/05 07:24:48;;;;;;;18.08;8.45;;;;;;;2.98;100.00;102238.72;5071908;28;20048;-59
2023/04/05 07:27:18;;;;;;;15.88;7.28;;;;;;;3.18;100.00;102241.09;5067174;28;20056;-59
2023/04/05 07:29:47;;;;;;;15.35;6.72;;;;;;;3.33;100.00;102244.41;5060592;28;20124;-59
2023/04/05 07:32:15;;;;;;;11.55;7.18;;;;;;;3.51;100.00;102238.09;5068413;28;20458;-59
2023/04/05 07:34:43;;;;;;;11.40;6.80;;;;;;;3.71;100.00;102230.03;5061378;28;20041;-59
2023/04/05 07:37:11;;;;;;;12.77;6.72;;;;;;;3.98;100.00;102239.19;5058720;28;20036;-60
2023/04/05 07:39:39;;;;;;;11.60;6.47;;;;;;;4.15;100.00;102231.09;5075066;28;20075;-59
2023/04/05 07:42:07;;;;;;;14.18;6.88;;;;;;;4.33;100.00;102226.47;5074987;28;20102;-59
2023/04/05 07:44:37;;;;;;;13.05;6.82;;;;;;;4.44;100.00;102227.13;5074895;28;20095;-59
2023/04/05 07:47:05;;;;;;;11.15;6.47;;;;;;;4.65;99.76;102225.03;5065757;28;20040;-59
2023/04/05 07:49:33;;;;;;;13.50;6.97;;;;;;;4.81;97.22;102233.44;5057688;28;20033;-59
2023/04/05 07:52:02;;;;;;;11.50;5.88;;;;;;;5.07;93.56;102230.31;5061246;28;20140;-60
2023/04/05 07:54:32;;;;;;;9.88;5.45;;;;;;;5.22;91.24;102232.63;5061352;28;20499;-60
2023/04/05 07:57:00;;;;;;;10.13;5.75;;;;;;;5.44;86.94;102232.19;5066145;28;20072;-60
2023/04/05 07:59:28;;;;;;;13.35;6.32;;;;;;;5.57;87.86;102228.41;5064363;28;20175;-60
2023/04/05 08:01:58;;;;;;;12.77;6.30;;;;;;;5.73;87.90;102228.06;5063678;28;20463;-60
2023/04/05 08:04:40;;;;;;;10.82;6.22;;;;;;;5.95;86.24;102225.81;5060196;28;20059;-60
2023/04/05 08:07:09;;;;;;;9.57;5.72;;;;;;;6.18;84.12;102222.69;5058452;28;20051;-60
2023/04/05 08:09:40;;;;;;;11.77;5.75;;;;;;;6.48;80.76;102232.41;5056505;28;20073;-61
2023/04/05 08:12:10;;;;;;;14.57;5.80;;;;;;;6.53;77.83;102226.16;5064281;28;20060;-60
2023/04/05 08:14:38;;;;;;;10.60;5.57;;;;;;;6.69;76.72;102217.91;5070754;28;20052;-60
2023/04/05 08:17:07;;;;;;;11.48;5.60;;;;;;;6.82;75.49;102216.69;5074005;28;20040;-60
2023/04/05 08:19:35;;;;;;;10.18;5.55;;;;;;;7.05;77.34;102217.81;5072875;28;20045;-60
2023/04/05 08:22:03;;;;;;;10.15;5.22;;;;;;;7.38;75.10;102221.19;5070425;28;20053;-60
2023/04/05 08:24:32;;;;;;;12.02;5.50;;;;;;;7.48;73.50;102227.00;5069605;28;20124;-61
2023/04/05 08:27:02;;;;;;;9.90;5.63;;;;;;;7.64;74.38;102218.69;5073793;28;20049;-61
2023/04/05 08:29:30;;;;;;;10.55;5.78;;;;;;;7.90;75.46;102221.31;5074027;28;20515;-61
2023/04/05 08:31:59;;;;;;;11.93;5.20;;;;;;;8.12;72.05;102215.41;5060682;28;20123;-61
2023/04/05 08:34:28;;;;;;;9.77;5.18;;;;;;;8.34;68.00;102212.91;5061746;28;20063;-61
2023/04/05 08:36:58;;;;;;;9.23;4.78;;;;;;;8.57;70.55;102219.16;5073128;28;20064;-61
2023/04/05 08:39:29;;;;;;;;;;;;;;;8.71;64.63;102216.06;5074530;28;20666;-61
2023/04/05 08:42:03;;;;;;;12.45;5.13;;;;;;;8.87;63.50;102219.84;5066994;28;19974;-61
2023/04/05 08:44:31;;;;;;;9.00;4.60;;;;;;;9.02;63.25;102215.81;5053922;28;20041;-61
2023/04/05 08:47:00;;;;;;;10.05;4.75;;;;;;;9.21;61.19;102221.22;5053773;28;20045;-62
2023/04/05 08:49:30;;;;;;;11.75;4.53;;;;;;;9.45;60.87;102213.34;5053818;28;20049;-62
2023/04/05 08:52:00;;;;;;;7.82;4.20;;;;;;;9.71;58.56;102209.69;5053909;28;20052;-61
2023/04/05 08:54:29;;;;;;;9.23;4.88;;;;;;;9.80;56.77;102209.34;5068372;28;20047;-61
2023/04/05 08:56:58;;;;;;;10.38;4.57;;;;;;;10.00;55.24;102210.28;5060226;28;20056;-62
2023/04/05 08:59:27;;;;;;;10.27;5.07;;;;;;;10.09;55.55;102209.03;5055143;28;20361;-61
2023/04/05 09:01:57;;;;;;;7.72;4.15;;;;;;;10.30;52.42;102202.88;5059873;28;20052;-61
2023/04/05 09:04:32;;;;;;;10.68;4.38;;;;;;;10.38;54.47;102202.59;5058618;28;20093;-62
2023/04/05 09:07:02;;;;;;;9.95;4.63;;;;;;;10.47;55.68;102204.84;5058689;28;20373;-61
2023/04/05 09:09:35;;;;;;;10.48;4.68;;;;;;;10.62;51.74;102207.72;5063296;28;20068;-62
2023/04/05 09:12:04;;;;;;;9.55;4.20;;;;;;;10.61;51.12;102203.41;5062594;28;20430;-62
2023/04/05 09:14:34;;;;;;;8.52;4.90;;;;;;;10.57;49.57;102199.19;5069194;28;20070;-61
2023/04/05 09:17:03;;;;;;;8.38;4.40;;;;;;;10.61;48.18;102196.34;5062905;28;20098;-60
2023/04/05 09:19:32;;;;;;;7.82;3.80;;;;;;;11.00;48.68;102207.78;5062137;28;20123;-61
2023/04/05 09:22:02;;;;;;;8.02;4.22;;;;;;;11.28;47.31;102204.75;5055953;28;20037;-62
2023/04/05 09:24:32;;;;;;;11.90;4.70;;;;;;;11.53;46.18;102194.84;5058333;28;20041;-61
2023/04/05 09:27:07;;;;;;;9.55;4.72;;;;;;;11.76;48.09;102206.91;5056064;28;20033;-61
2023/04/05 09:29:36;;;;;;;8.50;4.60;;;;;;;11.97;44.91;102203.25;5057974;28;20488;-61
2023/04/05 09:32:05;;;;;;;8.57;4.60;;;;;;;12.02;43.42;102196.91;5055869;28;20053;-61
2023/04/05 09:34:36;;;;;;;8.68;4.80;;;;;;;12.27;45.73;102191.25;5056896;28;20083;-61
2023/04/05 09:37:13;;;;;;;8.63;4.55;;;;;;;11.82;44.02;102191.66;5058625;28;20044;-62
2023/04/05 09:39:42;;;;;;;10.52;5.05;;;;;;;11.76;44.46;102189.31;5059049;28;20108;-61
2023/04/05 09:42:14;;;;;;;8.98;4.65;;;;;;;11.53;41.94;102187.78;5058071;28;20055;-61
2023/04/05 09:44:49;;;;;;;7.80;4.38;;;;;;;11.64;43.90;102182.88;5057014;28;20136;-62
2023/04/05 09:47:18;;;;;;;9.20;5.00;;;;;;;11.57;42.90;102186.72;5059084;28;20052;-60
2023/04/05 09:49:48;;;;;;;7.60;4.03;;;;;;;11.78;41.33;102190.09;5058258;28;20048;-59
2023/04/05 09:52:25;;;;;;;9.07;4.65;;;;;;;12.02;43.13;102181.94;5064543;28;20467;-60
2023/04/05 09:54:55;;;;;;;7.63;4.45;;;;;;;12.30;44.07;102172.63;5053921;28;20058;-60
2023/04/05 09:57:25;;;;;;;10.18;4.45;;;;;;;12.79;44.18;102177.13;5054108;28;20098;-59
2023/04/05 09:59:54;;;;;;;11.32;4.40;;;;;;;12.80;44.03;102174.41;5061545;28;20463;-62
2023/04/05 10:02:22;;;;;;;8.88;4.80;;;;;;;12.88;41.91;102176.63;5060303;28;20059;-62
2023/04/05 10:04:53;;;;;;;9.70;4.82;;;;;;;13.11;44.73;102175.38;5059115;28;20756;-63
2023/04/05 10:07:24;;;;;;;8.60;4.68;;;;;;;13.47;42.50;102174.31;5058533;28;20059;-62
2023/04/05 10:09:52;;;;;;;9.90;4.53;;;;;;;13.01;38.42;102177.66;5056487;28;20070;-62
2023/04/05 10:12:25;;;;;;;8.10;4.40;;;;;;;13.30;40.29;102172.56;5060081;28;20136;-62
2023/04/05 10:14:55;;;;;;;10.75;4.65;;;;;;;13.75;40.49;102166.59;5054245;28;20075;-63
2023/04/05 10:17:27;;;;;;;8.05;4.47;;;;;;;13.64;39.26;102159.28;5053781;28;20358;-62
2023/04/05 10:20:09;;;;;;;10.13;4.78;;;;;;;13.75;40.32;102166.59;5063624;28;20470;-62
2023/04/05 10:22:44;;;;;;;9.35;4.78;;;;;;;14.02;39.38;102162.34;5059588;28;20411;-63
2023/04/05 10:25:24;;;;;;;10.73;5.60;;;;;;;13.98;37.88;102154.69;5059868;28;20048;-62
2023/04/05 10:27:55;;;;;;;8.73;5.00;;;;;;;14.23;40.68;102146.13;5056251;28;20369;-62
2023/04/05 10:30:24;;;;;;;9.18;5.35;;;;;;;13.63;38.21;102147.00;5061956;28;20686;-62
2023/04/05 10:33:07;;;;;;;10.40;5.55;;;;;;;13.48;39.58;102148.72;5064625;28;20503;-62
2023/04/05 10:35:50;;;;;;;7.72;4.85;;;;;;;14.10;39.93;102135.44;5062572;28;20139;-62
2023/04/05 10:38:24;;;;;;;9.55;5.18;;;;;;;14.52;39.95;102136.44;5063095;28;20033;-63
2023/04/05 10:40:55;;;;;;;8.30;5.15;;;;;;;14.67;37.49;102129.38;5060098;28;20106;-63
2023/04/05 10:43:26;;;;;;;8.85;5.63;;;;;;;14.75;38.17;102131.56;5061064;28;20048;-62
2023/04/05 10:45:56;;;;;;;10.85;5.47;;;;;;;14.83;36.92;102128.41;5062189;28;20495;-63
2023/04/05 10:48:40;;;;;;;11.43;5.22;;;;;;;14.90;38.59;102123.56;5061423;28;20371;-62
2023/04/05 10:51:11;;;;;;;8.82;4.72;;;;;;;15.24;38.60;102126.72;5060935;28;20426;-63
2023/04/05 10:53:41;;;;;;;9.07;5.03;;;;;;;14.92;36.18;102127.81;5054080;28;20127;-63
2023/04/05 10:56:09;;;;;;;9.40;5.07;;;;;;;15.06;37.99;102134.06;5063273;28;20335;-62
2023/04/05 10:58:41;;;;;;;8.43;5.18;;;;;;;15.24;35.41;102127.56;5064275;28;20110;-63
2023/04/05 11:01:10;;;;;;;8.88;4.60;;;;;;;15.53;34.75;102119.53;5064560;28;20078;-63
2023/04/05 11:03:41;;;;;;;8.45;4.90;;;;;;;15.65;35.56;102121.34;5069378;28;20040;-63
2023/04/05 11:06:30;;;;;;;9.05;5.25;;;;;;;15.76;33.09;102103.84;5066770;28;20058;-63
2023/04/05 11:09:00;;;;;;;10.05;5.40;;;;;;;15.80;34.16;102108.03;5068216;28;20087;-62
2023/04/05 11:11:39;;;;;;;9.88;5.10;;;;;;;15.40;35.94;102105.38;5072227;28;20596;-64
2023/04/05 11:14:21;;;;;;;11.48;5.20;;;;;;;15.66;33.67;102100.97;5074489;28;20098;-63
2023/04/05 11:16:52;;;;;;;9.65;5.10;;;;;;;16.14;36.01;102096.00;5071314;28;20462;-64
2023/04/05 11:19:20;;;;;;;9.10;4.78;;;;;;;16.46;35.83;102094.69;5074429;28;20097;-63
2023/04/05 11:22:01;;;;;;;9.15;4.80;;;;;;;16.60;34.61;102089.25;5075196;28;20041;-63
2023/04/05 11:24:50;;;;;;;10.00;4.90;;;;;;;17.00;34.24;102097.06;5075435;28;20376;-64
2023/04/05 11:27:25;;;;;;;10.45;5.47;;;;;;;17.08;33.99;102090.31;5075317;28;20060;-64
2023/04/05 11:29:54;;;;;;;8.68;5.00;;;;;;;16.92;34.11;102088.78;5075398;28;20072;-63
2023/04/05 11:32:23;;;;;;;9.02;4.97;;;;;;;17.19;34.61;102093.03;5075083;28;20572;-63
2023/04/05 11:35:13;;;;;;;7.88;4.90;;;;;;;17.32;32.10;102085.84;5075187;28;20048;-64
2023/04/05 11:37:57;;;;;;;8.38;4.75;;;;;;;17.55;34.22;102088.59;5072960;28;20091;-64